createdAt,value
2023-04-07T00:00:04.905Z,2.60
2023-04-07T00:02:39.351Z,2.67
2023-04-07T00:05:06.826Z,2.95
2023-04-07T00:07:39.462Z,3.03
2023-04-07T00:10:14.785Z,3.13
2023-04-07T00:12:42.078Z,2.72
2023-04-07T00:15:09.795Z,3.22
2023-04-07T00:17:36.917Z,3.45
2023-04-07T00:20:04.473Z,2.63
2023-04-07T00:22:31.658Z,2.75
2023-04-07T00:25:00.874Z,3.10
2023-04-07T00:27:28.052Z,3.50
2023-04-07T00:29:58.434Z,3.17
2023-04-07T00:32:28.475Z,3.78
2023-04-07T00:35:00.293Z,3.28
2023-04-07T00:37:29.659Z,3.05
2023-04-07T00:39:59.853Z,3.38
2023-04-07T00:42:27.177Z,3.35
2023-04-07T00:44:54.868Z,3.38
2023-04-07T00:47:22.044Z,3.35
2023-04-07T00:49:49.098Z,3.30
2023-04-07T00:52:16.922Z,3.33
2023-04-07T00:54:48.985Z,4.03
2023-04-07T00:57:22.454Z,3.33
2023-04-07T00:59:52.380Z,3.70
2023-04-07T01:02:44.886Z,4.38
2023-04-07T01:05:22.359Z,3.50
2023-04-07T01:08:06.471Z,3.58
2023-04-07T01:10:52.509Z,3.78
2023-04-07T01:13:30.414Z,3.63
2023-04-07T01:16:15.609Z,3.50
2023-04-07T01:18:51.543Z,3.97
2023-04-07T01:21:20.226Z,3.78
2023-04-07T01:24:16.271Z,3.85
2023-04-07T01:26:50.674Z,3.83
2023-04-07T01:29:48.142Z,4.25
2023-04-07T01:32:21.171Z,3.85
2023-04-07T01:35:01.623Z,3.75
2023-04-07T01:37:35.072Z,3.90
2023-04-07T01:40:12.679Z,4.00
2023-04-07T01:42:44.024Z,3.85
2023-04-07T01:45:22.100Z,4.28
2023-04-07T01:48:10.576Z,4.25
2023-04-07T01:50:41.126Z,4.13
2023-04-07T01:53:14.158Z,4.28
2023-04-07T01:55:43.530Z,4.25
2023-04-07T01:58:13.783Z,4.60
2023-04-07T02:00:43.637Z,4.25
2023-04-07T02:03:23.508Z,4.22
2023-04-07T02:05:58.214Z,4.10
2023-04-07T02:08:32.244Z,4.05
2023-04-07T02:11:03.954Z,3.90
2023-04-07T02:13:37.886Z,4.30
2023-04-07T02:16:12.732Z,3.92
2023-04-07T02:18:42.102Z,3.85
2023-04-07T02:21:09.489Z,3.88
2023-04-07T02:23:40.092Z,3.65
2023-04-07T02:26:07.548Z,4.22
2023-04-07T02:28:34.679Z,4.43
2023-04-07T02:31:01.918Z,4.10
2023-04-07T02:33:28.935Z,4.57
2023-04-07T02:35:56.158Z,4.65
2023-04-07T02:38:23.287Z,3.50
2023-04-07T02:40:50.643Z,4.03
2023-04-07T02:43:20.579Z,3.55
2023-04-07T02:45:47.778Z,3.67
2023-04-07T02:48:14.845Z,3.63
2023-04-07T02:50:43.498Z,3.58
2023-04-07T02:53:13.154Z,3.65
2023-04-07T02:55:40.517Z,3.80
2023-04-07T02:58:07.737Z,3.38
2023-04-07T03:00:39.507Z,3.78
2023-04-07T03:03:14.051Z,3.33
2023-04-07T03:05:46.733Z,3.53
2023-04-07T03:08:13.873Z,3.88
2023-04-07T03:10:41.165Z,3.13
2023-04-07T03:13:16.757Z,3.60
2023-04-07T03:15:44.436Z,3.42
2023-04-07T03:18:12.038Z,3.65
2023-04-07T03:20:42.633Z,4.15
2023-04-07T03:23:12.207Z,3.63
2023-04-07T03:25:39.374Z,3.40
2023-04-07T03:28:07.098Z,3.63
2023-04-07T03:30:37.944Z,3.67
2023-04-07T03:33:05.589Z,4.28
2023-04-07T03:35:33.350Z,3.38
2023-04-07T03:38:00.591Z,3.75
2023-04-07T03:40:27.851Z,3.60
2023-04-07T03:42:54.996Z,3.92
2023-04-07T03:45:22.509Z,3.85
2023-04-07T03:47:52.164Z,3.97
2023-04-07T03:50:22.361Z,3.35
2023-04-07T03:53:00.978Z,3.17
2023-04-07T03:55:31.389Z,3.70
2023-04-07T03:58:05.015Z,3.60
2023-04-07T04:00:35.286Z,3.67
2023-04-07T04:03:11.664Z,3.53
2023-04-07T04:05:51.394Z,3.58
2023-04-07T04:08:31.215Z,3.83
2023-04-07T04:11:03.998Z,4.00
2023-04-07T04:13:43.082Z,3.47
2023-04-07T04:16:18.473Z,3.60
2023-04-07T04:18:51.660Z,4.07
2023-04-07T04:21:27.908Z,3.78
2023-04-07T04:23:57.632Z,3.97
2023-04-07T04:26:29.995Z,3.08
2023-04-07T04:29:03.645Z,3.67
2023-04-07T04:31:39.261Z,3.28
2023-04-07T04:34:12.009Z,3.47
2023-04-07T04:36:42.813Z,4.03
2023-04-07T04:39:14.699Z,3.65
2023-04-07T04:41:45.242Z,3.92
2023-04-07T04:44:13.382Z,3.90
2023-04-07T04:46:44.755Z,3.22
2023-04-07T04:49:16.945Z,4.20
2023-04-07T04:51:49.847Z,3.85
2023-04-07T04:54:25.737Z,4.15
2023-04-07T04:56:58.367Z,3.70
2023-04-07T04:59:27.338Z,3.70
2023-04-07T05:02:01.881Z,3.65
2023-04-07T05:04:33.903Z,3.55
2023-04-07T05:07:26.841Z,3.80
2023-04-07T05:10:14.696Z,4.07
2023-04-07T05:12:54.970Z,4.00
2023-04-07T05:15:24.808Z,4.18
2023-04-07T05:17:56.267Z,4.40
2023-04-07T05:20:30.426Z,4.22
2023-04-07T05:23:07.543Z,4.53
2023-04-07T05:25:38.811Z,4.38
2023-04-07T05:28:17.155Z,4.05
2023-04-07T05:30:49.651Z,4.30
2023-04-07T05:33:20.578Z,4.13
2023-04-07T05:35:57.197Z,3.95
2023-04-07T05:41:22.178Z,3.88
2023-04-07T05:43:52.127Z,4.55
2023-04-07T05:46:22.424Z,3.85
2023-04-07T05:49:19.044Z,5.20
2023-04-07T05:51:53.778Z,3.67
2023-04-07T05:54:32.735Z,3.97
2023-04-07T05:57:07.140Z,4.45
2023-04-07T05:59:38.999Z,4.82
2023-04-07T06:02:15.364Z,4.05
2023-04-07T06:04:46.440Z,4.78
2023-04-07T06:07:16.864Z,4.13
2023-04-07T06:09:44.121Z,4.80
2023-04-07T06:12:12.510Z,4.45
2023-04-07T06:14:40.000Z,4.40
2023-04-07T06:17:07.226Z,4.75
2023-04-07T06:19:36.978Z,5.18
2023-04-07T06:22:05.512Z,4.32
2023-04-07T06:24:35.386Z,4.63
2023-04-07T06:27:04.090Z,4.80
2023-04-07T06:29:39.250Z,4.32
2023-04-07T06:32:07.023Z,5.00
2023-04-07T06:34:36.569Z,4.78
2023-04-07T06:37:06.984Z,4.93
2023-04-07T06:39:45.586Z,5.40
2023-04-07T06:42:12.667Z,4.90
2023-04-07T06:44:50.222Z,4.93
2023-04-07T06:47:17.427Z,4.90
2023-04-07T06:49:45.281Z,6.10
2023-04-07T06:52:12.602Z,5.43
2023-04-07T06:54:39.961Z,5.13
2023-04-07T06:57:12.026Z,5.05
2023-04-07T06:59:39.588Z,5.75
2023-04-07T07:02:09.808Z,5.97
2023-04-07T07:04:42.112Z,5.68
2023-04-07T07:07:09.314Z,5.47
2023-04-07T07:09:37.103Z,5.32
2023-04-07T07:12:04.482Z,5.30
2023-04-07T07:14:31.551Z,5.40
2023-04-07T07:16:58.831Z,5.55
2023-04-07T07:19:26.744Z,5.97
2023-04-07T07:21:53.965Z,6.22
2023-04-07T07:24:26.515Z,5.88
2023-04-07T07:26:56.510Z,5.93
2023-04-07T07:29:29.063Z,6.40
2023-04-07T07:31:56.487Z,6.95
2023-04-07T07:34:26.435Z,5.72
2023-04-07T07:36:56.163Z,6.30
2023-04-07T07:39:23.314Z,6.22
2023-04-07T07:41:57.529Z,6.65
2023-04-07T07:44:27.489Z,7.72
2023-04-07T07:46:54.710Z,6.72
2023-04-07T07:49:23.370Z,6.30
2023-04-07T07:51:50.882Z,6.82
2023-04-07T07:54:23.930Z,5.82
2023-04-07T07:56:56.252Z,6.10
2023-04-07T07:59:23.454Z,6.60
2023-04-07T08:01:52.770Z,7.18
2023-04-07T08:04:26.575Z,6.60
2023-04-07T08:06:59.749Z,6.47
2023-04-07T08:09:27.503Z,6.25
2023-04-07T08:11:54.592Z,6.10
2023-04-07T08:14:21.644Z,7.18
2023-04-07T08:16:48.791Z,6.38
2023-04-07T08:19:16.139Z,6.55
2023-04-07T08:21:45.080Z,7.13
2023-04-07T08:24:12.266Z,6.57
2023-04-07T08:26:39.505Z,6.18
2023-04-07T08:29:06.600Z,7.72
2023-04-07T08:31:34.408Z,6.93
2023-04-07T08:34:01.606Z,7.05
2023-04-07T08:36:29.107Z,6.82
2023-04-07T08:38:56.391Z,6.05
2023-04-07T08:41:41.417Z,6.05
2023-04-07T08:44:09.779Z,4.32
2023-04-07T08:46:41.642Z,4.00
2023-04-07T08:49:13.804Z,3.25
2023-04-07T08:51:51.527Z,3.75
2023-04-07T08:54:21.785Z,3.05
2023-04-07T08:56:51.844Z,2.65
2023-04-07T08:59:26.997Z,2.50
2023-04-07T09:01:59.691Z,3.00
2023-04-07T09:04:28.061Z,2.95
2023-04-07T09:06:55.118Z,2.80
2023-04-07T09:09:22.768Z,2.97
2023-04-07T09:11:53.229Z,2.88
2023-04-07T09:14:21.872Z,2.83
2023-04-07T09:16:51.386Z,3.17
2023-04-07T09:19:27.560Z,2.80
2023-04-07T09:21:54.766Z,3.00
2023-04-07T09:24:27.310Z,3.75
2023-04-07T09:27:17.040Z,3.75
2023-04-07T09:29:47.819Z,3.35
2023-04-07T09:32:37.425Z,3.70
2023-04-07T09:35:06.905Z,3.67
2023-04-07T09:37:34.174Z,3.30
2023-04-07T09:40:01.966Z,3.63
2023-04-07T09:42:33.661Z,3.45
2023-04-07T09:45:08.576Z,3.92
2023-04-07T09:47:36.181Z,2.90
2023-04-07T09:50:07.273Z,2.65
2023-04-07T09:53:03.445Z,2.95
2023-04-07T09:55:55.834Z,2.53
2023-04-07T09:59:00.900Z,2.85
2023-04-07T10:04:38.044Z,2.13
2023-04-07T10:07:20.109Z,2.70
2023-04-07T10:10:12.982Z,2.22
2023-04-07T10:12:53.755Z,2.00
2023-04-07T10:15:52.145Z,1.90
2023-04-07T10:18:41.331Z,2.38
2023-04-07T10:21:19.996Z,1.85
2023-04-07T10:24:22.654Z,2.38
2023-04-07T10:27:03.627Z,1.85
2023-04-07T10:29:43.570Z,1.98
2023-04-07T10:32:15.419Z,2.15
2023-04-07T10:35:03.405Z,2.00
2023-04-07T10:37:34.924Z,1.80
2023-04-07T10:40:24.287Z,2.08
2023-04-07T10:42:56.690Z,2.10
2023-04-07T10:46:21.695Z,1.67
2023-04-07T10:49:18.810Z,2.10
2023-04-07T10:52:18.058Z,1.73
2023-04-07T10:55:14.060Z,2.00
2023-04-07T10:58:23.538Z,2.00
2023-04-07T11:04:09.298Z,2.00
2023-04-07T11:09:23.556Z,2.00
2023-04-07T11:11:56.238Z,2.25
2023-04-07T11:14:37.780Z,1.70
2023-04-07T11:17:25.089Z,1.70
2023-04-07T11:20:00.958Z,2.05
2023-04-07T11:22:51.470Z,1.80
2023-04-07T11:25:29.083Z,1.90
2023-04-07T11:28:10.539Z,2.00
2023-04-07T11:30:44.620Z,1.83
2023-04-07T11:33:22.369Z,1.80
2023-04-07T11:36:03.551Z,2.35
2023-04-07T11:38:38.958Z,1.70
2023-04-07T11:41:15.789Z,2.03
2023-04-07T11:43:50.471Z,1.90
2023-04-07T11:46:21.891Z,1.63
2023-04-07T11:49:10.898Z,2.42
2023-04-07T11:51:47.338Z,2.10
2023-04-07T11:54:16.277Z,1.67
2023-04-07T11:56:47.863Z,1.50
2023-04-07T11:59:25.422Z,1.90
2023-04-07T12:01:56.289Z,2.05
2023-04-07T12:04:25.308Z,2.10
2023-04-07T12:06:55.574Z,2.03
2023-04-07T12:09:32.699Z,1.98
2023-04-07T12:12:00.912Z,1.77
2023-04-07T12:14:29.839Z,1.90
2023-04-07T12:17:02.325Z,1.65
2023-04-07T12:19:37.998Z,1.50
2023-04-07T12:22:05.372Z,1.58
2023-04-07T12:24:35.646Z,2.08
2023-04-07T12:27:05.578Z,1.70
2023-04-07T12:29:36.453Z,1.40
2023-04-07T12:32:06.041Z,1.80
2023-04-07T12:34:36.714Z,1.60
2023-04-07T12:37:04.819Z,1.65
2023-04-07T12:39:32.649Z,1.67
2023-04-07T12:42:03.518Z,1.88
2023-04-07T12:44:38.523Z,1.45
2023-04-07T12:47:08.771Z,1.90
2023-04-07T12:49:41.386Z,1.75
2023-04-07T12:52:11.710Z,1.93
2023-04-07T12:54:43.466Z,1.70
2023-04-07T12:57:18.919Z,1.88
2023-04-07T12:59:57.147Z,2.55
2023-04-07T13:02:31.079Z,1.73
2023-04-07T13:05:01.270Z,1.95
2023-04-07T13:07:40.428Z,1.60
2023-04-07T13:10:13.060Z,1.90
2023-04-07T13:12:44.423Z,2.22
2023-04-07T13:15:13.322Z,2.00
2023-04-07T13:17:55.852Z,1.90
2023-04-07T13:20:30.599Z,1.55
2023-04-07T13:23:07.686Z,2.25
2023-04-07T13:25:41.913Z,2.78
2023-04-07T13:28:09.303Z,2.25
2023-04-07T13:30:42.778Z,2.45
2023-04-07T13:33:10.078Z,2.30
2023-04-07T13:35:39.982Z,2.45
2023-04-07T13:38:07.228Z,2.17
2023-04-07T13:40:37.266Z,2.17
2023-04-07T13:43:06.664Z,2.10
2023-04-07T13:45:34.094Z,1.73
2023-04-07T13:48:02.404Z,1.95
2023-04-07T13:50:29.629Z,2.13
2023-04-07T13:52:56.769Z,2.65
2023-04-07T13:55:26.972Z,2.55
2023-04-07T13:57:54.154Z,2.78
2023-04-07T14:00:21.482Z,2.85
2023-04-07T14:02:50.248Z,1.88
2023-04-07T14:05:20.151Z,1.50
2023-04-07T14:07:50.989Z,1.95
2023-04-07T14:10:20.685Z,2.10
2023-04-07T14:12:48.711Z,1.30
2023-04-07T14:15:18.344Z,1.70
2023-04-07T14:17:45.642Z,1.95
2023-04-07T14:20:15.949Z,1.90
2023-04-07T14:22:43.450Z,2.55
2023-04-07T14:25:11.846Z,1.60
2023-04-07T14:27:40.599Z,1.33
2023-04-07T14:30:08.536Z,1.65
2023-04-07T14:32:36.808Z,1.58
2023-04-07T14:35:04.105Z,2.42
2023-04-07T14:37:36.194Z,1.80
2023-04-07T14:40:05.320Z,1.63
2023-04-07T14:42:33.579Z,2.17
2023-04-07T14:45:02.209Z,1.73
2023-04-07T14:47:30.692Z,2.28
2023-04-07T14:50:00.366Z,1.80
2023-04-07T14:52:36.231Z,1.48
2023-04-07T14:55:03.522Z,1.63
2023-04-07T14:57:30.953Z,2.15
2023-04-07T15:00:01.224Z,2.03
2023-04-07T15:02:35.507Z,1.83
2023-04-07T15:05:05.171Z,1.42
2023-04-07T15:07:32.401Z,1.60
2023-04-07T15:10:04.310Z,2.00
2023-04-07T15:12:34.898Z,2.00
2023-04-07T15:17:44.845Z,1.60
2023-04-07T15:20:13.632Z,1.58
2023-04-07T15:22:41.099Z,1.50
2023-04-07T15:25:11.502Z,1.70
2023-04-07T15:27:50.078Z,1.27
2023-04-07T15:30:20.047Z,1.27
2023-04-07T15:33:03.930Z,1.20
2023-04-07T15:35:36.646Z,1.52
2023-04-07T15:38:05.723Z,1.70
2023-04-07T15:40:44.637Z,1.20
2023-04-07T15:43:15.288Z,1.33
2023-04-07T15:45:48.310Z,1.25
2023-04-07T15:48:18.156Z,1.25
2023-04-07T15:50:47.918Z,1.55
2023-04-07T15:53:15.323Z,2.47
2023-04-07T15:55:44.439Z,1.15
2023-04-07T15:58:18.535Z,1.30
2023-04-07T16:00:45.971Z,1.30
2023-04-07T16:03:13.531Z,1.38
2023-04-07T16:05:46.748Z,1.85
2023-04-07T16:08:22.625Z,1.92
2023-04-07T16:10:53.108Z,1.73
2023-04-07T16:13:20.663Z,1.42
2023-04-07T16:18:41.114Z,1.80
2023-04-07T16:21:12.853Z,1.83
2023-04-07T16:23:40.015Z,1.70
2023-04-07T16:26:09.589Z,1.25
2023-04-07T16:28:39.213Z,2.58
2023-04-07T16:31:09.585Z,1.52
2023-04-07T16:36:18.032Z,1.15
2023-04-07T16:38:46.994Z,1.60
2023-04-07T16:41:20.578Z,1.55
2023-04-07T16:46:15.085Z,1.33
2023-04-07T16:48:42.318Z,1.17
2023-04-07T16:51:21.064Z,1.70
2023-04-07T16:53:49.347Z,1.77
2023-04-07T16:56:24.864Z,1.50
2023-04-07T16:58:56.741Z,2.50
2023-04-07T17:01:25.220Z,1.35
2023-04-07T17:03:52.774Z,1.60
2023-04-07T17:06:22.023Z,1.35
2023-04-07T17:08:49.526Z,1.65
2023-04-07T17:11:16.806Z,1.90
2023-04-07T17:13:44.028Z,1.45
2023-04-07T17:16:14.962Z,1.17
2023-04-07T17:18:44.127Z,1.90
2023-04-07T17:21:11.554Z,1.23
2023-04-07T17:23:41.640Z,1.50
2023-04-07T17:26:08.855Z,1.83
2023-04-07T17:28:36.076Z,1.65
2023-04-07T17:31:03.343Z,2.10
2023-04-07T17:33:33.691Z,1.70
2023-04-07T17:36:06.507Z,2.00
2023-04-07T17:38:33.745Z,1.75
2023-04-07T17:41:07.353Z,1.83
2023-04-07T17:43:36.962Z,1.63
2023-04-07T17:46:05.001Z,2.17
2023-04-07T17:48:32.674Z,1.80
2023-04-07T17:51:00.233Z,1.90
2023-04-07T17:53:27.845Z,2.70
2023-04-07T17:55:55.171Z,1.80
2023-04-07T17:58:22.509Z,2.13
2023-04-07T18:00:51.117Z,2.20
2023-04-07T18:03:21.293Z,3.00
2023-04-07T18:05:51.556Z,1.98
2023-04-07T18:08:21.854Z,1.63
2023-04-07T18:10:50.379Z,1.70
2023-04-07T18:13:19.367Z,2.13
2023-04-07T18:15:55.525Z,1.80
2023-04-07T18:18:22.873Z,1.88
2023-04-07T18:20:52.752Z,2.08
2023-04-07T18:23:22.548Z,1.55
2023-04-07T18:25:52.730Z,1.55
2023-04-07T18:28:21.763Z,1.70
2023-04-07T18:30:49.101Z,2.40
2023-04-07T18:33:17.256Z,1.70
2023-04-07T18:35:44.543Z,1.77
2023-04-07T18:38:11.753Z,2.42
2023-04-07T18:40:38.745Z,1.73
2023-04-07T18:43:08.622Z,2.85
2023-04-07T18:45:38.126Z,1.67
2023-04-07T18:48:08.339Z,1.80
2023-04-07T18:50:35.911Z,2.22
2023-04-07T18:53:06.265Z,2.10
2023-04-07T18:55:34.018Z,1.83
2023-04-07T18:58:01.347Z,1.92
2023-04-07T19:00:29.226Z,1.98
2023-04-07T19:02:56.798Z,2.60
2023-04-07T19:05:27.640Z,2.40
2023-04-07T19:07:57.973Z,2.00
2023-04-07T19:10:33.888Z,2.70
2023-04-07T19:13:04.851Z,2.17
2023-04-07T19:15:34.632Z,2.03
2023-04-07T19:18:02.557Z,2.40
2023-04-07T19:20:33.989Z,2.38
2023-04-07T19:23:02.172Z,3.17
2023-04-07T19:25:33.702Z,2.35
2023-04-07T19:28:01.307Z,2.35
2023-04-07T19:30:28.517Z,2.40
2023-04-07T19:32:57.392Z,3.35
2023-04-07T19:35:27.726Z,2.00
2023-04-07T19:37:56.147Z,2.17
2023-04-07T19:40:23.796Z,2.42
2023-04-07T19:42:51.204Z,3.08
2023-04-07T19:45:18.729Z,2.33
2023-04-07T19:47:50.799Z,2.58
2023-04-07T19:50:18.252Z,2.58
2023-04-07T19:52:45.858Z,2.10
2023-04-07T19:55:14.300Z,1.90
2023-04-07T19:57:44.434Z,2.50
2023-04-07T20:00:12.033Z,2.10
2023-04-07T20:02:51.193Z,2.53
2023-04-07T20:05:19.974Z,2.50
2023-04-07T20:07:47.501Z,2.10
2023-04-07T20:10:18.318Z,2.75
2023-04-07T20:12:48.805Z,2.92
2023-04-07T20:15:17.612Z,2.45
2023-04-07T20:17:45.871Z,2.60
2023-04-07T20:20:18.219Z,2.95
2023-04-07T20:22:48.371Z,2.60
2023-04-07T20:25:16.663Z,4.35
2023-04-07T20:27:50.214Z,4.70
2023-04-07T20:30:18.181Z,4.03
2023-04-07T20:32:49.535Z,3.25
2023-04-07T20:35:19.465Z,2.67
2023-04-07T20:37:47.054Z,2.30
2023-04-07T20:40:14.566Z,2.90
2023-04-07T20:42:42.405Z,2.60
2023-04-07T20:45:14.418Z,2.50
2023-04-07T20:47:42.301Z,2.17
2023-04-07T20:50:11.044Z,2.70
2023-04-07T20:52:40.670Z,2.80
2023-04-07T20:55:08.755Z,2.42
2023-04-07T20:57:36.771Z,2.60
2023-04-07T21:00:12.719Z,2.75
2023-04-07T21:02:40.445Z,2.95
2023-04-07T21:05:12.437Z,3.20
2023-04-07T21:07:39.635Z,3.53
2023-04-07T21:10:10.156Z,3.65
2023-04-07T21:12:39.269Z,3.92
2023-04-07T21:15:10.171Z,3.63
2023-04-07T21:17:39.626Z,3.25
2023-04-07T21:20:08.145Z,3.40
2023-04-07T21:22:39.898Z,3.10
2023-04-07T21:25:07.842Z,3.83
2023-04-07T21:27:38.473Z,3.55
2023-04-07T21:30:08.062Z,3.28
2023-04-07T21:32:39.267Z,3.17
2023-04-07T21:35:25.536Z,3.72
2023-04-07T21:37:55.252Z,4.05
2023-04-07T21:40:30.048Z,3.92
2023-04-07T21:43:04.289Z,2.97
2023-04-07T21:45:45.339Z,3.83
2023-04-07T21:48:22.822Z,4.22
2023-04-07T21:50:58.943Z,3.97
2023-04-07T21:53:27.963Z,3.40
2023-04-07T21:56:00.574Z,3.63
2023-04-07T21:58:30.695Z,3.42
2023-04-07T22:01:01.056Z,3.00
2023-04-07T22:03:29.965Z,3.38
2023-04-07T22:06:16.912Z,3.85
2023-04-07T22:08:58.305Z,3.10
2023-04-07T22:11:28.626Z,3.85
2023-04-07T22:13:58.594Z,3.72
2023-04-07T22:16:26.002Z,3.83
2023-04-07T22:18:53.214Z,4.03
2023-04-07T22:21:20.685Z,3.22
2023-04-07T22:23:48.664Z,3.58
2023-04-07T22:26:20.290Z,3.25
2023-04-07T22:28:49.752Z,3.50
2023-04-07T22:31:20.008Z,4.13
2023-04-07T22:33:52.094Z,3.65
2023-04-07T22:36:20.120Z,3.65
2023-04-07T22:38:47.926Z,3.20
2023-04-07T22:41:15.543Z,3.65
2023-04-07T22:43:42.789Z,3.78
2023-04-07T22:46:10.170Z,3.70
2023-04-07T22:48:40.613Z,3.50
2023-04-07T22:51:07.928Z,3.72
2023-04-07T22:53:35.365Z,3.70
2023-04-07T22:56:02.882Z,3.92
2023-04-07T22:58:30.052Z,3.90
2023-04-07T23:01:05.047Z,4.45
2023-04-07T23:03:32.598Z,4.00
2023-04-07T23:06:01.443Z,3.13
2023-04-07T23:08:28.682Z,4.43
2023-04-07T23:10:55.933Z,3.83
2023-04-07T23:13:25.775Z,4.05
2023-04-07T23:15:53.573Z,4.13
2023-04-07T23:18:23.172Z,4.00
2023-04-07T23:20:56.153Z,4.07
2023-04-07T23:23:26.041Z,4.10
2023-04-07T23:25:56.231Z,4.85
2023-04-07T23:28:24.991Z,3.58
2023-04-07T23:30:54.337Z,3.80
2023-04-07T23:33:22.029Z,3.47
2023-04-07T23:35:49.416Z,4.10
2023-04-07T23:38:20.298Z,4.80
2023-04-07T23:40:53.952Z,4.32
2023-04-07T23:45:48.316Z,3.88
2023-04-07T23:48:18.751Z,4.55
2023-04-07T23:50:51.568Z,4.25
2023-04-07T23:53:21.396Z,4.33
2023-04-07T23:55:50.775Z,4.35
2023-04-07T23:58:18.048Z,3.83
